Time;durP1;ratioP1;P1;durP2;ratioP2;P2;SDS_P1;SDS_P2;PMS_P1;PMS_P2;Temp;Humidity;BMP_temperature;BMP_pressure;BME280_temperature;BME280_humidity;BME280_pressure;Samples;Min_cycle;Max_cycle;Signal;HPM_P1;HPM_P2
2023/06/09 00:02:20;;;;;;;8.80;7.30;;;;;;;14.07;100.00;97822.03;5071598;28;20215;-77
2023/06/09 00:04:46;;;;;;;7.73;6.63;;;;;;;14.07;100.00;97810.56;5071449;28;20654;-77
2023/06/09 00:07:15;;;;;;;8.80;6.80;;;;;;;14.03;100.00;97809.13;5071220;28;20238;-77
2023/06/09 00:09:42;;;;;;;9.03;6.50;;;;;;;13.97;100.00;97812.31;5070320;28;20316;-77
2023/06/09 00:12:09;;;;;;;7.60;6.80;;;;;;;13.96;100.00;97814.16;5071291;28;20210;-76
2023/06/09 00:14:35;;;;;;;7.60;6.50;;;;;;;13.94;100.00;97820.59;5071395;28;20313;-76
2023/06/09 00:17:02;;;;;;;8.40;7.43;;;;;;;13.95;100.00;97819.59;5071185;28;20227;-76
2023/06/09 00:19:32;;;;;;;9.47;7.50;;;;;;;13.93;100.00;97824.22;5070553;28;20222;-76
2023/06/09 00:21:59;;;;;;;7.13;6.43;;;;;;;13.89;100.00;97822.78;5071300;28;20210;-76
2023/06/09 00:24:26;;;;;;;7.43;6.63;;;;;;;13.83;100.00;97818.00;5071144;28;20213;-76
2023/06/09 00:26:53;;;;;;;8.10;7.20;;;;;;;13.77;100.00;97823.88;5071220;28;20246;-76
2023/06/09 00:29:22;;;;;;;8.17;7.17;;;;;;;13.71;100.00;97809.31;5070295;28;20219;-76
2023/06/09 00:31:48;;;;;;;7.70;6.90;;;;;;;13.67;100.00;97813.19;5070807;28;20253;-76
2023/06/09 00:34:15;;;;;;;9.57;7.77;;;;;;;13.62;100.00;97811.94;5071111;28;20581;-76
2023/06/09 00:36:43;;;;;;;9.10;8.20;;;;;;;13.61;100.00;97802.25;5070993;28;20343;-76
2023/06/09 00:39:09;;;;;;;12.67;9.67;;;;;;;13.57;100.00;97806.16;5070175;28;20217;-76
2023/06/09 00:41:36;;;;;;;11.43;9.40;;;;;;;13.61;100.00;97807.56;5071396;28;20586;-76
2023/06/09 00:44:03;;;;;;;10.83;9.73;;;;;;;13.60;100.00;97804.09;5070999;28;20253;-76
2023/06/09 00:46:30;;;;;;;12.63;10.53;;;;;;;13.62;100.00;97803.97;5070698;28;20705;-76
2023/06/09 00:48:57;;;;;;;11.43;10.00;;;;;;;13.58;100.00;97807.84;5070959;28;20226;-76
2023/06/09 00:51:24;;;;;;;11.03;9.43;;;;;;;13.54;100.00;97806.41;5070188;28;20323;-76
2023/06/09 00:53:52;;;;;;;11.87;9.47;;;;;;;13.53;100.00;97810.03;5071149;28;20207;-76
2023/06/09 00:56:23;;;;;;;10.37;9.27;;;;;;;13.52;100.00;97808.38;5071123;28;20226;-76
2023/06/09 00:58:50;;;;;;;10.07;9.03;;;;;;;13.46;100.00;97809.72;5070247;28;20609;-78
2023/06/09 01:01:16;;;;;;;10.90;8.27;;;;;;;13.38;100.00;97811.38;5070094;28;20212;-77
2023/06/09 01:03:43;;;;;;;9.57;8.57;;;;;;;13.30;100.00;97800.53;5070893;28;20211;-78
2023/06/09 01:06:26;;;;;;;11.70;9.57;;;;;;;13.24;100.00;97801.06;5070682;28;20239;-77
2023/06/09 01:08:59;;;;;;;10.63;9.20;;;;;;;13.26;100.00;97804.44;5070649;28;20291;-77
2023/06/09 01:11:31;;;;;;;11.93;9.53;;;;;;;13.25;100.00;97805.41;5070387;28;20218;-76
2023/06/09 01:14:05;;;;;;;10.43;9.33;;;;;;;13.24;100.00;97809.03;5070824;28;20211;-76
2023/06/09 01:16:40;;;;;;;11.63;9.27;;;;;;;13.20;100.00;97802.31;5070592;28;20226;-77
2023/06/09 01:19:15;;;;;;;11.17;9.20;;;;;;;13.14;100.00;97806.31;5070686;28;20207;-77
2023/06/09 01:21:44;;;;;;;11.40;8.83;;;;;;;13.12;100.00;97799.44;5072073;28;20243;-77
2023/06/09 01:24:23;;;;;;;10.47;8.67;;;;;;;13.07;100.00;97802.50;5074424;28;20294;-76
2023/06/09 01:26:54;;;;;;;11.07;9.40;;;;;;;13.00;100.00;97795.19;5074230;28;20283;-77
2023/06/09 01:29:23;;;;;;;10.87;9.20;;;;;;;12.98;100.00;97803.28;5073270;28;20257;-77
2023/06/09 01:31:50;;;;;;;11.63;9.20;;;;;;;12.93;100.00;97796.63;5074522;28;20208;-77
2023/06/09 01:34:17;;;;;;;11.50;9.77;;;;;;;12.94;100.00;97800.97;5074409;28;20285;-76
2023/06/09 01:36:44;;;;;;;11.87;10.07;;;;;;;12.90;100.00;97794.25;5074292;28;20569;-76
2023/06/09 01:39:12;;;;;;;10.60;9.13;;;;;;;12.89;100.00;97792.56;5073705;28;20305;-77
2023/06/09 01:41:38;;;;;;;9.90;8.87;;;;;;;12.82;100.00;97796.69;5074067;28;20207;-77
2023/06/09 01:44:06;;;;;;;10.37;8.77;;;;;;;12.74;100.00;97789.38;5074249;28;20211;-78
2023/06/09 01:46:33;;;;;;;10.43;9.20;;;;;;;12.71;100.00;97794.94;5073925;28;20317;-77
2023/06/09 01:49:09;;;;;;;10.73;9.33;;;;;;;12.70;100.00;97787.94;5074165;28;20215;-76
2023/06/09 01:51:41;;;;;;;9.63;8.63;;;;;;;12.72;100.00;97790.47;5074017;28;20210;-76
2023/06/09 01:54:11;;;;;;;12.57;11.03;;;;;;;12.78;100.00;97790.78;5073886;28;20213;-76
2023/06/09 01:56:43;;;;;;;11.37;9.30;;;;;;;12.79;100.00;97791.66;5073819;28;20290;-76
2023/06/09 01:59:16;;;;;;;13.33;9.47;;;;;;;12.76;100.00;97791.88;5073234;28;20233;-76
2023/06/09 02:01:45;;;;;;;11.43;9.40;;;;;;;12.73;100.00;97792.16;5073907;28;20218;-76
2023/06/09 02:04:14;;;;;;;12.03;10.23;;;;;;;12.76;100.00;97791.88;5073812;28;20200;-76
2023/06/09 02:06:41;;;;;;;11.40;9.67;;;;;;;12.75;100.00;97792.88;5073501;28;20231;-76
2023/06/09 02:09:09;;;;;;;11.33;10.10;;;;;;;12.75;100.00;97790.22;5073264;28;20214;-77
2023/06/09 02:11:36;;;;;;;12.70;10.73;;;;;;;12.78;100.00;97795.28;5073702;28;20310;-76
2023/06/09 02:14:03;;;;;;;13.23;11.40;;;;;;;12.76;100.00;97798.03;5073622;28;20214;-76
2023/06/09 02:16:31;;;;;;;13.37;11.03;;;;;;;12.73;100.00;97789.50;5073520;28;20224;-76
2023/06/09 02:18:57;;;;;;;13.00;10.87;;;;;;;12.75;100.00;97791.06;5073334;28;20216;-77
2023/06/09 02:21:24;;;;;;;11.90;10.23;;;;;;;12.66;100.00;97788.34;5072891;28;20242;-76
2023/06/09 02:23:51;;;;;;;11.37;9.87;;;;;;;12.60;100.00;97792.31;5073553;28;20208;-76
2023/06/09 02:26:17;;;;;;;11.40;9.83;;;;;;;12.50;100.00;97788.75;5073089;28;20252;-76
2023/06/09 02:28:44;;;;;;;10.80;8.93;;;;;;;12.43;100.00;97782.28;5073352;28;20242;-76
2023/06/09 02:31:10;;;;;;;11.47;9.50;;;;;;;12.41;100.00;97786.84;5072614;28;20218;-76
2023/06/09 02:33:38;;;;;;;10.37;9.23;;;;;;;12.35;100.00;97781.22;5072893;28;20608;-76
2023/06/09 02:36:05;;;;;;;9.87;8.57;;;;;;;12.25;100.00;97780.28;5073418;28;20210;-76
2023/06/09 02:38:32;;;;;;;12.43;9.43;;;;;;;12.17;100.00;97782.72;5073296;28;20212;-76
2023/06/09 02:40:58;;;;;;;10.37;9.23;;;;;;;12.17;100.00;97782.72;5072401;28;20256;-76
2023/06/09 02:43:25;;;;;;;9.83;8.83;;;;;;;12.07;100.00;97790.56;5073134;28;20214;-76
2023/06/09 02:45:51;;;;;;;13.40;9.53;;;;;;;11.98;100.00;97787.81;5072844;28;20214;-77
2023/06/09 02:48:17;;;;;;;10.13;9.03;;;;;;;11.93;100.00;97793.47;5072748;28;20237;-76
2023/06/09 02:50:45;;;;;;;10.90;9.73;;;;;;;11.86;100.00;97794.09;5072147;28;20222;-76
2023/06/09 02:53:12;;;;;;;13.83;10.03;;;;;;;11.82;100.00;97793.50;5073051;28;20300;-76
2023/06/09 02:55:38;;;;;;;11.40;9.97;;;;;;;11.82;100.00;97795.28;5072815;28;20300;-76
2023/06/09 02:58:05;;;;;;;14.77;10.70;;;;;;;11.85;100.00;97797.69;5072745;28;20230;-76
2023/06/09 03:00:32;;;;;;;12.30;10.20;;;;;;;11.85;100.00;97800.34;5071911;28;20208;-76
2023/06/09 03:03:01;;;;;;;11.17;9.73;;;;;;;11.80;100.00;97792.75;5072636;28;20219;-76
2023/06/09 03:05:28;;;;;;;12.03;9.53;;;;;;;11.76;100.00;97798.44;5072593;28;20209;-76
2023/06/09 03:07:55;;;;;;;11.67;10.13;;;;;;;11.71;100.00;97800.59;5072348;28;20233;-76
2023/06/09 03:10:22;;;;;;;12.10;10.80;;;;;;;11.71;100.00;97790.00;5071811;28;20233;-76
2023/06/09 03:12:48;;;;;;;12.87;9.73;;;;;;;11.71;100.00;97790.84;5072491;28;20213;-76
2023/06/09 03:15:16;;;;;;;13.03;10.47;;;;;;;11.72;100.00;97789.03;5072309;28;20215;-76
2023/06/09 03:17:43;;;;;;;13.90;11.93;;;;;;;11.75;100.00;97792.28;5072189;28;20234;-76
2023/06/09 03:20:11;;;;;;;13.40;11.83;;;;;;;11.79;100.00;97787.59;5071704;28;20209;-77
2023/06/09 03:22:37;;;;;;;14.03;11.07;;;;;;;11.81;100.00;97796.25;5072200;28;20234;-76
2023/06/09 03:25:06;;;;;;;11.60;10.23;;;;;;;11.80;100.00;97795.41;5072251;28;20221;-76
2023/06/09 03:27:33;;;;;;;12.27;9.90;;;;;;;11.83;100.00;97794.31;5071878;28;20232;-77
2023/06/09 03:29:59;;;;;;;12.23;10.77;;;;;;;11.85;100.00;97787.09;5071547;28;20210;-76
2023/06/09 03:32:25;;;;;;;13.13;11.10;;;;;;;11.86;100.00;97799.41;5072212;28;20210;-76
2023/06/09 03:34:52;;;;;;;15.10;10.83;;;;;;;11.89;100.00;97804.44;5072124;28;20215;-77
2023/06/09 03:37:19;;;;;;;13.93;11.53;;;;;;;11.90;100.00;97791.06;5072035;28;20222;-77
2023/06/09 03:39:45;;;;;;;13.30;11.57;;;;;;;11.95;100.00;97783.63;5071064;28;20206;-77
2023/06/09 03:42:13;;;;;;;13.20;11.47;;;;;;;12.03;100.00;97785.63;5071875;28;20607;-76
2023/06/09 03:44:40;;;;;;;13.13;11.53;;;;;;;12.06;100.00;97785.38;5071464;28;20218;-76
2023/06/09 03:47:09;;;;;;;14.47;11.83;;;;;;;12.14;100.00;97786.47;5086337;22;20609;-82
2023/06/09 03:49:36;;;;;;;13.70;11.53;;;;;;;12.18;100.00;97787.06;5071558;28;20248;-84
2023/06/09 03:52:05;;;;;;;12.57;11.00;;;;;;;12.24;100.00;97794.50;5072193;28;20296;-82
2023/06/09 03:54:33;;;;;;;14.10;11.90;;;;;;;12.28;100.00;97798.59;5072187;28;20206;-83
2023/06/09 03:57:00;;;;;;;13.00;11.70;;;;;;;12.32;100.00;97803.53;5072339;28;20612;-85
2023/06/09 03:59:27;;;;;;;14.10;11.90;;;;;;;12.36;100.00;97796.16;5071905;28;20210;-83
2023/06/09 04:01:54;;;;;;;15.33;12.63;;;;;;;12.39;100.00;97793.25;5072837;28;20210;-83
2023/06/09 04:04:20;;;;;;;14.87;11.97;;;;;;;12.44;100.00;97785.75;5072983;28;20210;-84
2023/06/09 04:06:47;;;;;;;14.23;11.50;;;;;;;12.47;100.00;97786.34;5072593;28;20230;-83
2023/06/09 04:09:14;;;;;;;12.87;11.17;;;;;;;12.52;100.00;97788.63;5071130;28;20438;-83
2023/06/09 04:11:40;;;;;;;14.03;11.73;;;;;;;12.56;100.00;97787.41;5072101;28;20242;-83
2023/06/09 04:14:07;;;;;;;12.87;11.47;;;;;;;12.64;100.00;97791.09;5071857;28;20308;-83
2023/06/09 04:16:35;;;;;;;12.67;10.80;;;;;;;12.67;100.00;97788.22;5072145;28;20238;-84
2023/06/09 04:19:02;;;;;;;13.00;11.30;;;;;;;12.68;100.00;97784.59;5071821;28;20210;-83
2023/06/09 04:21:29;;;;;;;13.03;11.37;;;;;;;12.71;100.00;97786.16;5071256;28;20218;-83
2023/06/09 04:23:56;;;;;;;13.07;11.37;;;;;;;12.76;100.00;97789.25;5071595;28;20267;-83
2023/06/09 04:26:23;;;;;;;12.50;10.80;;;;;;;12.83;100.00;97793.09;5071173;28;20221;-83
2023/06/09 04:28:53;;;;;;;14.47;12.07;;;;;;;12.93;100.00;97791.31;5071230;28;20226;-83
2023/06/09 04:31:23;;;;;;;13.23;11.83;;;;;;;12.95;100.00;97789.41;5070503;28;20213;-83
2023/06/09 04:33:51;;;;;;;13.93;11.57;;;;;;;12.99;100.00;97793.50;5071317;28;20206;-83
2023/06/09 04:36:18;;;;;;;12.10;10.73;;;;;;;13.01;100.00;97802.19;5071095;28;20303;-83
2023/06/09 04:38:45;;;;;;;12.93;11.27;;;;;;;13.03;100.00;97802.91;5071238;28;20267;-84
2023/06/09 04:41:11;;;;;;;13.20;11.70;;;;;;;13.05;100.00;97798.28;5070845;28;20210;-83
2023/06/09 04:43:39;;;;;;;14.33;11.67;;;;;;;13.16;100.00;97795.56;5071084;28;20207;-83
2023/06/09 04:46:06;;;;;;;13.40;11.50;;;;;;;13.22;100.00;97797.72;5071106;28;20210;-83
2023/06/09 04:48:34;;;;;;;13.23;11.70;;;;;;;13.25;100.00;97794.78;5071139;28;20229;-83
2023/06/09 04:51:02;;;;;;;13.70;11.50;;;;;;;13.24;100.00;97801.06;5070367;28;20210;-83
2023/06/09 04:53:29;;;;;;;16.93;12.33;;;;;;;13.33;100.00;97802.94;5071440;28;20608;-83
2023/06/09 04:55:56;;;;;;;14.47;12.20;;;;;;;13.39;100.00;97802.44;5071163;28;20210;-83
2023/06/09 04:58:23;;;;;;;15.30;12.63;;;;;;;13.52;100.00;97795.91;5075193;28;20238;-83
2023/06/09 05:00:51;;;;;;;14.63;13.13;;;;;;;13.74;100.00;97798.41;5074635;28;20218;-83
2023/06/09 05:03:18;;;;;;;15.67;12.70;;;;;;;14.14;100.00;97799.25;5075031;28;20688;-83
2023/06/09 05:05:44;;;;;;;14.40;12.77;;;;;;;14.60;100.00;97801.34;5075137;28;20675;-83
2023/06/09 05:08:14;;;;;;;12.60;10.87;;;;;;;15.18;100.00;97805.66;5075527;28;20231;-83
2023/06/09 05:10:41;;;;;;;11.20;10.00;;;;;;;15.84;100.00;97815.31;5075268;28;20668;-83
2023/06/09 05:13:08;;;;;;;11.20;10.00;;;;;;;16.44;100.00;97815.59;5075747;28;20214;-83
2023/06/09 05:15:35;;;;;;;12.10;9.87;;;;;;;16.86;100.00;97812.22;5075711;28;20314;-83
2023/06/09 05:18:02;;;;;;;11.90;10.07;;;;;;;17.30;100.00;97827.31;5075709;28;20231;-83
2023/06/09 05:20:28;;;;;;;12.13;10.30;;;;;;;17.64;100.00;97819.41;5075327;28;20293;-83
2023/06/09 05:22:55;;;;;;;12.17;9.70;;;;;;;18.05;100.00;97826.66;5075941;28;20215;-83
2023/06/09 05:25:23;;;;;;;10.50;9.40;;;;;;;18.42;100.00;97827.19;5075843;28;20218;-83
2023/06/09 05:27:49;;;;;;;10.93;9.67;;;;;;;18.78;98.89;97817.94;5075949;28;20682;-83
2023/06/09 05:30:16;;;;;;;11.53;10.00;;;;;;;19.06;94.41;97822.81;5075275;28;20207;-83
2023/06/09 05:32:42;;;;;;;10.23;9.17;;;;;;;19.33;91.67;97825.19;5074665;28;20207;-83
2023/06/09 05:35:09;;;;;;;10.40;9.40;;;;;;;19.61;87.68;97813.13;5074924;28;20301;-83
2023/06/09 05:37:35;;;;;;;10.07;9.10;;;;;;;19.83;85.60;97812.44;5074432;28;20235;-85
2023/06/09 05:40:02;;;;;;;9.93;8.93;;;;;;;20.07;85.17;97812.41;5073743;28;20208;-81
2023/06/09 05:42:29;;;;;;;9.97;8.97;;;;;;;20.31;82.97;97808.78;5074339;28;20260;-81
2023/06/09 05:44:56;;;;;;;10.47;9.47;;;;;;;20.52;82.05;97809.84;5074026;28;20641;-81
2023/06/09 05:47:22;;;;;;;10.77;9.43;;;;;;;20.67;79.97;97805.41;5073733;28;20233;-78
2023/06/09 05:49:49;;;;;;;9.97;9.00;;;;;;;20.86;79.08;97812.19;5073689;28;20216;-84
2023/06/09 05:52:15;;;;;;;10.17;8.77;;;;;;;21.05;78.84;97822.50;5074140;28;20217;-78
2023/06/09 05:54:42;;;;;;;10.80;9.07;;;;;;;21.22;75.88;97808.75;5073896;28;20701;-78
2023/06/09 05:57:09;;;;;;;9.83;8.93;;;;;;;21.40;74.54;97806.59;5073839;28;20231;-78
2023/06/09 05:59:38;;;;;;;9.70;8.70;;;;;;;21.59;72.07;97811.44;5073278;28;20214;-78
2023/06/09 06:02:04;;;;;;;8.73;7.93;;;;;;;21.72;71.28;97810.88;5073807;28;20555;-78
2023/06/09 06:04:31;;;;;;;9.73;8.83;;;;;;;21.87;71.75;97817.94;5073811;28;20222;-78
2023/06/09 06:06:58;;;;;;;11.13;9.07;;;;;;;22.02;70.97;97815.28;5073261;28;20610;-75
2023/06/09 06:09:24;;;;;;;10.23;9.23;;;;;;;22.07;69.51;97808.31;5071780;28;20450;-79
2023/06/09 06:11:50;;;;;;;10.33;9.23;;;;;;;22.01;69.47;97809.03;5073631;28;20211;-78
2023/06/09 06:14:17;;;;;;;9.40;8.50;;;;;;;22.18;69.51;97810.53;5073511;28;20212;-79
2023/06/09 06:16:45;;;;;;;9.73;8.80;;;;;;;22.38;69.79;97814.31;5072151;28;20949;-81
2023/06/09 06:19:12;;;;;;;9.73;8.73;;;;;;;22.47;68.36;97802.47;5070105;28;20207;-82
2023/06/09 06:21:41;;;;;;;10.13;9.03;;;;;;;22.59;67.53;97806.34;5072461;28;20677;-80
2023/06/09 06:24:07;;;;;;;9.10;8.13;;;;;;;22.68;66.79;97799.81;5073317;28;20208;-81
2023/06/09 06:26:34;;;;;;;8.67;7.90;;;;;;;22.80;66.37;97798.31;5073229;28;20228;-82
2023/06/09 06:29:01;;;;;;;9.20;8.30;;;;;;;22.97;67.45;97810.53;5073384;28;20252;-83
2023/06/09 06:31:29;;;;;;;9.17;8.07;;;;;;;23.21;67.35;97812.88;5073211;28;20249;-79
2023/06/09 06:33:57;;;;;;;8.47;7.03;;;;;;;23.51;67.49;97813.56;5073293;28;20681;-83
2023/06/09 06:36:24;;;;;;;7.50;6.80;;;;;;;23.69;66.25;97809.38;5073020;28;20704;-80
2023/06/09 06:38:51;;;;;;;8.27;7.47;;;;;;;23.82;64.71;97801.38;5073195;28;20242;-76
2023/06/09 06:41:17;;;;;;;8.63;7.23;;;;;;;23.84;63.32;97793.91;5072073;28;20211;-74
2023/06/09 06:43:44;;;;;;;9.50;8.60;;;;;;;23.72;61.85;97790.09;5073125;28;20584;-75
2023/06/09 06:46:11;;;;;;;9.30;8.40;;;;;;;23.81;61.91;97788.94;5073015;28;20677;-77
2023/06/09 06:48:38;;;;;;;8.73;7.83;;;;;;;23.87;62.64;97793.56;5072884;28;20277;-77
2023/06/09 06:51:07;;;;;;;9.17;8.27;;;;;;;23.93;62.00;97802.72;5072206;28;20215;-77
2023/06/09 06:53:34;;;;;;;9.17;8.33;;;;;;;23.90;62.64;97803.97;5072971;28;20568;-77
2023/06/09 06:56:01;;;;;;;8.97;7.80;;;;;;;23.86;61.52;97791.88;5072694;28;20592;-77
2023/06/09 06:58:28;;;;;;;8.03;7.33;;;;;;;23.82;61.95;97796.00;5072811;28;20234;-77
2023/06/09 07:00:55;;;;;;;8.53;7.73;;;;;;;23.73;61.94;97797.19;5072102;28;20696;-77
2023/06/09 07:03:23;;;;;;;8.97;8.07;;;;;;;23.42;62.42;97798.56;5072608;28;20208;-77
2023/06/09 07:05:50;;;;;;;7.70;6.90;;;;;;;23.35;62.93;97803.88;5072610;28;20230;-77
2023/06/09 07:08:18;;;;;;;8.03;7.23;;;;;;;23.03;65.00;97815.16;5072278;28;20261;-77
2023/06/09 07:10:45;;;;;;;7.80;7.00;;;;;;;22.63;68.51;97829.22;5071644;28;20698;-77
2023/06/09 07:13:11;;;;;;;7.53;6.70;;;;;;;22.17;69.77;97830.41;5072541;28;20211;-77
2023/06/09 07:15:38;;;;;;;6.87;6.27;;;;;;;21.71;74.04;97847.69;5072584;28;20230;-77
2023/06/09 07:18:07;;;;;;;6.70;6.10;;;;;;;21.38;78.19;97856.16;5072379;28;20227;-77
2023/06/09 07:20:34;;;;;;;6.90;6.20;;;;;;;21.20;79.04;97859.16;5070695;28;20216;-77
2023/06/09 07:23:00;;;;;;;6.73;6.03;;;;;;;21.13;78.94;97862.75;5072289;28;20586;-81
2023/06/09 07:25:28;;;;;;;7.17;6.27;;;;;;;21.03;78.75;97857.59;5072494;28;20207;-84
2023/06/09 07:27:54;;;;;;;7.17;6.47;;;;;;;21.04;81.10;97871.88;5072329;28;20227;-74
2023/06/09 07:30:21;;;;;;;7.07;6.43;;;;;;;21.13;79.41;97868.97;5071683;28;20211;-79
2023/06/09 07:32:47;;;;;;;7.73;6.93;;;;;;;21.11;78.90;97871.00;5072721;28;20222;-79
2023/06/09 07:35:14;;;;;;;8.13;7.23;;;;;;;21.11;79.82;97867.47;5072344;28;20222;-79
2023/06/09 07:37:42;;;;;;;7.90;7.10;;;;;;;21.00;79.62;97874.09;5071914;28;20226;-79
2023/06/09 07:40:09;;;;;;;7.50;6.80;;;;;;;21.02;79.28;97868.53;5071606;28;20207;-79
2023/06/09 07:42:37;;;;;;;7.37;6.67;;;;;;;21.14;80.17;97876.00;5072023;28;20261;-79
2023/06/09 07:45:04;;;;;;;8.07;7.27;;;;;;;21.17;76.73;97853.31;5072196;28;20239;-79
2023/06/09 07:47:31;;;;;;;8.00;7.20;;;;;;;21.18;78.18;97866.59;5072004;28;20245;-79
2023/06/09 07:50:00;;;;;;;7.27;6.57;;;;;;;21.32;75.60;97844.28;5071233;28;20231;-79
2023/06/09 07:52:26;;;;;;;8.63;7.70;;;;;;;21.26;74.42;97846.84;5072232;28;20258;-79
2023/06/09 07:54:53;;;;;;;8.33;7.43;;;;;;;21.38;78.35;97857.03;5071706;28;20214;-89
2023/06/09 08:16:57;;;;;;;6.83;6.23;;;;;;;21.81;73.88;97845.59;6111269;22;20663;-87
2023/06/09 08:19:24;;;;;;;7.20;6.17;;;;;;;21.89;71.56;97821.28;5070970;28;20218;-85
2023/06/09 08:21:51;;;;;;;7.60;6.10;;;;;;;22.03;72.56;97836.63;5072295;28;20217;-84
2023/06/09 08:24:18;;;;;;;6.77;6.17;;;;;;;22.13;69.87;97826.41;5071945;28;20301;-87
2023/06/09 08:26:48;;;;;;;6.43;5.80;;;;;;;22.26;71.81;97825.78;5072360;28;20211;-86
2023/06/09 08:29:15;;;;;;;6.93;5.83;;;;;;;22.35;69.41;97816.56;5071426;28;20231;-88
2023/06/09 08:31:42;;;;;;;7.00;6.00;;;;;;;22.50;68.92;97812.84;5101380;22;20243;-86
2023/06/09 08:34:10;;;;;;;6.43;5.67;;;;;;;22.57;72.26;97827.28;5091265;28;20206;-85
2023/06/09 08:36:37;;;;;;;7.00;6.30;;;;;;;22.66;69.05;97809.97;5090767;28;20207;-86
2023/06/09 08:39:03;;;;;;;6.67;5.97;;;;;;;22.69;66.76;97801.53;5090666;28;20202;-87
2023/06/09 08:41:37;;;;;;;5.90;5.40;;;;;;;22.73;69.21;97802.78;5090183;28;20736;-82
2023/06/09 08:44:05;;;;;;;6.53;5.93;;;;;;;22.82;69.39;97798.97;5091273;28;20587;-87
2023/06/09 08:46:35;;;;;;;5.80;5.30;;;;;;;23.03;66.60;97795.47;5091459;28;20356;-87
2023/06/09 08:49:02;;;;;;;6.17;5.63;;;;;;;23.01;66.78;97790.25;5090981;28;20258;-87
2023/06/09 08:51:31;;;;;;;6.33;5.73;;;;;;;23.05;66.11;97782.63;5088981;28;20738;-86
2023/06/09 08:53:58;;;;;;;5.77;5.27;;;;;;;23.15;66.93;97783.97;5088523;28;20202;-86
2023/06/09 08:56:24;;;;;;;5.23;4.73;;;;;;;23.25;70.65;97798.00;5090235;28;20215;-86
2023/06/09 08:58:53;;;;;;;3.97;3.67;;;;;;;23.51;66.89;97782.03;5090015;28;20203;-87
2023/06/09 09:01:20;;;;;;;3.60;3.30;;;;;;;23.73;67.42;97788.22;5088044;28;20234;-87
2023/06/09 09:03:47;;;;;;;4.33;3.43;;;;;;;23.81;65.65;97771.88;5090229;28;20731;-87
2023/06/09 09:06:14;;;;;;;3.90;3.60;;;;;;;23.99;65.84;97783.91;5090116;28;20669;-87
2023/06/09 09:08:43;;;;;;;3.90;3.50;;;;;;;23.99;63.78;97770.38;5089338;28;20262;-88
2023/06/09 09:11:10;;;;;;;4.90;3.80;;;;;;;24.05;64.63;97768.75;5089321;28;20230;-88
2023/06/09 09:13:36;;;;;;;4.10;3.70;;;;;;;24.12;63.32;97770.47;5089980;28;20211;-88
2023/06/09 09:16:03;;;;;;;4.03;3.63;;;;;;;24.21;60.69;97760.34;5089424;28;20218;-85
2023/06/09 09:18:31;;;;;;;3.83;3.53;;;;;;;24.30;55.18;97719.44;5090314;28;20214;-86
2023/06/09 09:20:58;;;;;;;4.07;3.60;;;;;;;24.31;62.61;97780.53;5089403;28;20226;-88
2023/06/09 09:23:30;;;;;;;4.90;4.40;;;;;;;24.32;64.64;97786.78;5089562;28;20207;-86
2023/06/09 09:25:58;;;;;;;4.17;3.77;;;;;;;24.35;63.38;97773.72;5090004;28;20210;-88
2023/06/09 09:28:25;;;;;;;4.40;4.00;;;;;;;24.57;63.53;97780.69;5090203;28;20226;-87
2023/06/09 09:30:54;;;;;;;3.83;3.53;;;;;;;24.69;61.98;97779.06;5089851;28;20245;-89
2023/06/09 09:33:22;;;;;;;3.90;3.50;;;;;;;24.60;58.70;97750.56;5090930;28;20199;-87
2023/06/09 09:35:51;;;;;;;4.33;3.93;;;;;;;24.78;59.81;97764.34;5090679;28;20660;-92
2023/06/09 09:38:19;;;;;;;5.13;3.80;;;;;;;24.86;58.85;97745.22;5090822;28;20202;-88
2023/06/09 09:40:47;;;;;;;4.00;3.70;;;;;;;24.76;60.04;97765.59;5089706;28;20235;-88
2023/06/09 09:43:16;;;;;;;4.20;3.80;;;;;;;24.79;60.66;97762.47;5093007;28;20211;-83
2023/06/09 09:45:44;;;;;;;4.40;4.00;;;;;;;24.86;60.09;97753.34;5094817;28;20210;-86
2023/06/09 09:48:12;;;;;;;3.93;3.63;;;;;;;24.89;59.47;97747.53;5094295;28;20214;-91
2023/06/09 09:50:41;;;;;;;4.60;4.20;;;;;;;24.98;60.62;97754.41;5093850;28;20237;-87
2023/06/09 09:53:08;;;;;;;4.13;3.80;;;;;;;25.04;59.23;97744.63;5094423;28;20670;-86
2023/06/09 09:55:36;;;;;;;4.40;4.00;;;;;;;25.15;62.07;97757.56;5094432;28;20203;-87
2023/06/09 09:58:05;;;;;;;4.30;4.00;;;;;;;25.16;58.07;97733.00;5094259;28;20212;-88
2023/06/09 10:00:36;;;;;;;4.07;3.67;;;;;;;25.24;57.69;97726.59;5093123;28;20304;-90
2023/06/09 10:03:10;;;;;;;4.60;4.03;;;;;;;25.34;55.75;97714.31;5094360;28;20210;-94
2023/06/09 10:05:39;;;;;;;4.03;3.73;;;;;;;25.29;56.66;97722.22;5094525;28;20206;-94
2023/06/09 10:08:07;;;;;;;4.33;3.90;;;;;;;25.36;56.41;97717.66;5092819;28;20207;-94
2023/06/09 10:10:34;;;;;;;4.37;3.97;;;;;;;25.43;57.02;97723.88;5092406;28;20239;-93
2023/06/09 10:13:03;;;;;;;4.00;3.70;;;;;;;25.52;56.03;97716.38;5092649;28;20225;-93
2023/06/09 10:15:31;;;;;;;4.30;3.90;;;;;;;25.54;56.25;97720.56;5094362;28;20290;-89
2023/06/09 10:18:01;;;;;;;4.40;3.57;;;;;;;25.56;54.98;97707.66;5094308;28;20206;-89
2023/06/09 10:20:28;;;;;;;3.80;3.50;;;;;;;25.63;55.78;97722.03;5093157;28;20275;-88
2023/06/09 10:22:55;;;;;;;3.97;3.67;;;;;;;25.73;55.15;97716.97;5094186;28;20207;-89
2023/06/09 10:25:24;;;;;;;4.37;3.97;;;;;;;25.74;52.52;97688.91;5094161;28;20214;-88
2023/06/09 10:27:51;;;;;;;4.30;3.77;;;;;;;25.79;53.14;97705.31;5094391;28;20630;-86
2023/06/09 10:30:19;;;;;;;4.00;3.47;;;;;;;25.93;53.42;97703.44;5093339;28;20226;-89
2023/06/09 10:32:52;;;;;;;4.00;3.70;;;;;;;26.12;52.73;97699.84;5093693;28;20213;-91
2023/06/09 10:35:25;;;;;;;3.97;3.50;;;;;;;26.31;54.75;97724.16;5094320;28;20206;-90
2023/06/09 10:37:52;;;;;;;4.50;4.10;;;;;;;26.43;54.70;97716.19;5093718;28;20214;-90
2023/06/09 10:40:25;;;;;;;4.17;3.77;;;;;;;26.66;52.94;97711.94;5093493;28;20227;-87
2023/06/09 10:43:15;;;;;;;3.60;3.30;;;;;;;26.92;53.49;97711.78;5093817;28;20236;-88
2023/06/09 10:46:00;;;;;;;3.90;3.60;;;;;;;27.07;51.57;97704.16;5093063;28;20584;-88
2023/06/09 10:48:46;;;;;;;3.93;3.50;;;;;;;27.18;51.85;97706.19;5093506;28;20211;-87
2023/06/09 10:51:45;;;;;;;4.13;3.83;;;;;;;27.11;50.91;97697.25;5092609;28;20231;-89
2023/06/09 10:54:21;;;;;;;3.37;3.07;;;;;;;26.92;50.16;97677.34;5058586;28;20207;-89
2023/06/09 10:56:53;;;;;;;3.70;3.40;;;;;;;26.83;46.09;97642.56;5093140;28;20220;-89
2023/06/09 11:00:12;;;;;;;3.60;3.30;;;;;;;26.80;49.03;97672.84;5090118;28;20199;-89
2023/06/09 11:02:40;;;;;;;3.40;3.10;;;;;;;26.94;48.70;97677.13;5092297;28;20203;-88
2023/06/09 11:05:06;;;;;;;3.58;3.25;;;;;;;26.95;49.82;97681.50;5092120;28;20248;-88
2023/06/09 11:07:43;;;;;;;3.77;3.17;;;;;;;26.86;49.99;97680.13;5091254;28;20202;-89
2023/06/09 11:10:30;;;;;;;3.67;3.37;;;;;;;27.04;53.33;97716.28;5090461;28;20264;-89
2023/06/09 11:12:57;;;;;;;3.53;3.23;;;;;;;27.09;51.53;97688.50;5083606;28;20589;-88
2023/06/09 11:15:48;;;;;;;3.70;3.40;;;;;;;27.21;49.77;97667.78;5089893;28;20217;-83
2023/06/09 11:18:17;;;;;;;3.43;3.13;;;;;;;27.38;48.09;97658.00;5069072;28;20571;-87
2023/06/09 11:20:43;;;;;;;4.38;3.20;;;;;;;27.44;47.32;97657.13;5090981;28;20712;-88
2023/06/09 11:23:11;;;;;;;3.23;2.93;;;;;;;27.44;48.69;97679.69;5092422;28;20213;-88
2023/06/09 11:25:40;;;;;;;2.77;2.57;;;;;;;27.67;47.83;97657.31;5093077;28;20332;-88
2023/06/09 11:28:25;;;;;;;3.55;3.25;;;;;;;27.76;47.30;97653.28;5093034;28;20642;-88
2023/06/09 11:31:02;;;;;;;3.37;3.07;;;;;;;27.86;45.09;97627.28;5091717;28;20725;-88
2023/06/09 11:33:49;;;;;;;3.63;3.13;;;;;;;27.89;47.98;97666.72;5093277;28;20221;-88
2023/06/09 11:36:21;;;;;;;3.40;3.10;;;;;;;27.88;47.71;97654.22;5093098;28;20324;-88
2023/06/09 11:38:50;;;;;;;3.20;3.00;;;;;;;27.87;45.24;97637.06;5092860;28;20296;-88
2023/06/09 11:41:21;;;;;;;3.22;2.92;;;;;;;27.88;48.35;97663.16;5091626;28;20242;-88
2023/06/09 11:43:52;;;;;;;2.95;2.75;;;;;;;28.05;49.43;97666.13;5092883;28;20842;-88
2023/06/09 11:46:19;;;;;;;3.38;3.00;;;;;;;28.06;47.22;97648.78;5092261;28;20673;-86
2023/06/09 11:49:12;;;;;;;3.10;2.90;;;;;;;27.74;48.23;97663.50;5092767;28;20203;-86
2023/06/09 11:51:58;;;;;;;3.60;3.30;;;;;;;27.32;49.04;97663.50;5056187;28;20227;-89